createdAt,value
2017-12-13T00:02:00.772Z,32.70
2017-12-13T00:04:35.751Z,32.70
2017-12-13T00:07:11.393Z,33.60
2017-12-13T00:09:45.679Z,33.00
2017-12-13T00:12:24.242Z,32.30
2017-12-13T00:14:58.369Z,32.10
2017-12-13T00:17:35.157Z,32.30
2017-12-13T00:20:10.911Z,32.40
2017-12-13T00:22:46.578Z,32.40
2017-12-13T00:25:22.402Z,32.80
2017-12-13T00:28:02.505Z,32.60
2017-12-13T00:30:36.362Z,32.70
2017-12-13T00:33:13.294Z,33.10
2017-12-13T00:35:49.299Z,33.30
2017-12-13T00:38:27.277Z,33.00
2017-12-13T00:41:02.491Z,33.50
2017-12-13T00:43:37.522Z,33.90
2017-12-13T00:46:13.987Z,33.90
2017-12-13T00:48:51.226Z,33.60
2017-12-13T01:10:33.538Z,34.40
2017-12-13T01:13:07.699Z,34.20
2017-12-13T01:15:41.647Z,34.60
2017-12-13T01:18:17.251Z,34.80
2017-12-13T01:20:52.328Z,34.90
2017-12-13T01:23:28.282Z,35.30
2017-12-13T01:26:06.710Z,35.70
2017-12-13T01:28:41.476Z,36.20
2017-12-13T01:31:16.331Z,36.10
2017-12-13T01:33:51.013Z,35.90
2017-12-13T01:36:26.879Z,36.80
2017-12-13T01:39:01.453Z,36.60
2017-12-13T01:41:37.891Z,37.00
2017-12-13T01:44:12.048Z,36.80
2017-12-13T01:46:48.699Z,37.30
2017-12-13T01:49:22.473Z,37.50
2017-12-13T01:52:06.656Z,37.60
2017-12-13T01:54:42.679Z,37.70
2017-12-13T01:57:17.283Z,37.90
2017-12-13T02:00:00.303Z,37.90
2017-12-13T02:07:53.233Z,38.30
2017-12-13T02:10:28.920Z,38.50
2017-12-13T02:13:08.335Z,38.70
2017-12-13T02:15:44.677Z,39.20
2017-12-13T02:18:24.506Z,38.70
2017-12-13T02:21:07.676Z,39.20
2017-12-13T02:23:40.483Z,39.30
2017-12-13T02:26:15.913Z,39.20
2017-12-13T02:28:49.989Z,39.00
2017-12-13T02:31:26.866Z,38.70
2017-12-13T02:34:00.454Z,38.60
2017-12-13T02:36:36.501Z,39.00
2017-12-13T02:39:10.829Z,39.00
2017-12-13T02:41:46.644Z,39.30
2017-12-13T02:44:24.228Z,38.90
2017-12-13T02:46:58.597Z,38.80
2017-12-13T02:49:33.008Z,39.10
2017-12-13T02:52:06.435Z,38.90
2017-12-13T02:54:41.146Z,38.80
2017-12-13T02:57:14.970Z,39.00
2017-12-13T02:59:51.621Z,39.10
2017-12-13T03:02:29.884Z,39.70
2017-12-13T03:05:02.910Z,39.60
2017-12-13T03:07:38.846Z,39.40
2017-12-13T03:10:13.476Z,39.50
2017-12-13T03:12:48.640Z,39.10
2017-12-13T03:15:23.067Z,38.80
2017-12-13T03:20:39.280Z,39.00
2017-12-13T03:23:12.903Z,38.90
